createdAt,value
2017-05-10T00:00:48.882Z,0
2017-05-10T00:01:48.904Z,0
2017-05-10T00:02:48.931Z,0
2017-05-10T00:03:48.653Z,0
2017-05-10T00:04:48.990Z,0
2017-05-10T00:05:49.026Z,0
2017-05-10T00:06:48.727Z,0
2017-05-10T00:07:48.706Z,0
2017-05-10T00:08:48.785Z,0
2017-05-10T00:09:49.126Z,0
2017-05-10T00:10:48.834Z,0
2017-05-10T00:11:49.184Z,0
2017-05-10T00:12:49.156Z,0
2017-05-10T00:13:49.233Z,0
2017-05-10T00:14:49.262Z,0
2017-05-10T00:15:48.983Z,0
2017-05-10T00:16:49.004Z,0
2017-05-10T00:17:49.287Z,0
2017-05-10T00:18:48.750Z,0
2017-05-10T00:19:49.403Z,0
2017-05-10T00:20:49.427Z,0
2017-05-10T00:21:48.835Z,0
2017-05-10T00:22:49.421Z,0
2017-05-10T00:23:49.517Z,0
2017-05-10T00:24:49.541Z,0
2017-05-10T00:25:49.257Z,0
2017-05-10T00:26:49.585Z,0
2017-05-10T00:27:49.867Z,0
2017-05-10T00:28:49.648Z,0
2017-05-10T00:29:49.672Z,0
2017-05-10T00:30:49.698Z,0
2017-05-10T00:31:49.726Z,0
2017-05-10T00:32:49.423Z,0
2017-05-10T00:33:49.477Z,0
2017-05-10T00:34:49.801Z,0
2017-05-10T00:35:49.834Z,0
2017-05-10T00:36:49.550Z,0
2017-05-10T00:37:49.831Z,0
2017-05-10T00:38:49.600Z,0
2017-05-10T00:39:49.936Z,0
2017-05-10T00:40:49.653Z,0
2017-05-10T00:41:49.686Z,0
2017-05-10T00:42:50.266Z,0
2017-05-10T00:43:49.740Z,0
2017-05-10T00:44:49.801Z,0
2017-05-10T00:45:50.104Z,0
2017-05-10T00:46:49.823Z,0
2017-05-10T00:47:50.098Z,0
2017-05-10T00:48:50.199Z,0
2017-05-10T00:49:50.217Z,0
2017-05-10T00:50:49.937Z,0
2017-05-10T00:51:49.647Z,0
2017-05-10T00:52:50.238Z,0
2017-05-10T00:53:50.319Z,0
2017-05-10T00:54:50.028Z,0
2017-05-10T00:55:50.385Z,0
2017-05-10T00:56:50.090Z,0
2017-05-10T00:57:50.379Z,0
2017-05-10T00:58:50.450Z,0
2017-05-10T00:59:50.477Z,0
2017-05-10T01:00:50.500Z,0
2017-05-10T01:01:50.230Z,0
2017-05-10T01:02:50.830Z,0
2017-05-10T01:03:50.283Z,0
2017-05-10T01:04:49.999Z,0
2017-05-10T01:05:50.652Z,0
2017-05-10T01:06:50.678Z,0
2017-05-10T01:07:50.642Z,0
2017-05-10T01:08:50.726Z,0
2017-05-10T01:09:50.753Z,0
2017-05-10T01:10:49.844Z,0
2017-05-10T01:11:50.802Z,0
2017-05-10T01:12:50.767Z,0
2017-05-10T01:13:50.558Z,0
2017-05-10T01:14:50.576Z,0
2017-05-10T01:15:50.616Z,0
2017-05-10T01:16:50.321Z,0
2017-05-10T01:17:50.916Z,0
2017-05-10T01:18:51.006Z,0
2017-05-10T01:19:50.728Z,0
2017-05-10T01:20:50.744Z,0
2017-05-10T01:21:50.765Z,0
2017-05-10T01:22:51.373Z,0
2017-05-10T01:23:51.130Z,0
2017-05-10T01:24:50.853Z,0
2017-05-10T01:25:51.195Z,0
2017-05-10T01:26:50.897Z,0
2017-05-10T01:27:51.188Z,0
2017-05-10T01:28:50.950Z,0
2017-05-10T01:29:51.309Z,0
2017-05-10T01:30:51.327Z,0
2017-05-10T01:31:50.737Z,0
2017-05-10T01:32:51.625Z,0
2017-05-10T01:33:51.095Z,0
2017-05-10T01:34:51.427Z,0
2017-05-10T01:35:51.144Z,0
2017-05-10T01:36:51.484Z,0
2017-05-10T01:37:51.761Z,0
2017-05-10T01:38:51.246Z,0
2017-05-10T01:39:51.262Z,0
2017-05-10T01:40:51.275Z,0
2017-05-10T01:41:51.621Z,0
2017-05-10T01:42:51.590Z,0
2017-05-10T01:43:51.050Z,0
2017-05-10T01:44:51.388Z,0
2017-05-10T01:45:51.727Z,0
2017-05-10T01:46:51.756Z,0
2017-05-10T01:47:52.053Z,0
2017-05-10T01:48:51.498Z,0
2017-05-10T01:49:51.562Z,0
2017-05-10T01:50:51.858Z,0
2017-05-10T01:51:51.890Z,0
2017-05-10T01:52:52.183Z,0
2017-05-10T01:53:51.951Z,0
2017-05-10T01:54:51.679Z,0
2017-05-10T01:55:51.361Z,0
2017-05-10T01:56:52.034Z,0
2017-05-10T01:57:51.433Z,0
2017-05-10T01:58:52.096Z,0
2017-05-10T01:59:51.796Z,0
2017-05-10T02:00:51.827Z,0
2017-05-10T02:01:52.159Z,0
2017-05-10T02:02:51.561Z,0
2017-05-10T02:03:52.222Z,0
2017-05-10T02:04:51.342Z,0
2017-05-10T02:05:51.958Z,0
2017-05-10T02:06:52.295Z,0
2017-05-10T02:07:52.327Z,0
2017-05-10T02:08:52.048Z,0
2017-05-10T02:09:52.373Z,0
2017-05-10T02:10:52.102Z,0
2017-05-10T02:11:52.123Z,0
2017-05-10T02:12:52.139Z,0
2017-05-10T02:13:52.729Z,0
2017-05-10T02:14:52.186Z,0
2017-05-10T02:15:52.233Z,0
2017-05-10T02:16:52.554Z,0
2017-05-10T02:17:52.588Z,0
2017-05-10T02:18:52.239Z,0
2017-05-10T02:19:52.330Z,0
2017-05-10T02:20:52.354Z,0
2017-05-10T02:21:52.378Z,0
2017-05-10T02:22:52.406Z,0
2017-05-10T02:23:52.688Z,0
2017-05-10T02:24:52.769Z,0
2017-05-10T02:25:52.797Z,0
2017-05-10T02:26:52.522Z,0
2017-05-10T02:27:52.886Z,0
2017-05-10T02:28:53.131Z,0
2017-05-10T02:29:52.597Z,0
2017-05-10T02:30:52.617Z,0
2017-05-10T02:31:52.332Z,0
2017-05-10T02:32:52.372Z,0
2017-05-10T02:33:52.960Z,0
2017-05-10T02:34:53.041Z,0
2017-05-10T02:35:53.070Z,0
2017-05-10T02:36:52.790Z,0
2017-05-10T02:37:53.123Z,0
2017-05-10T02:38:52.776Z,0
2017-05-10T02:39:52.861Z,0
2017-05-10T02:40:53.210Z,0
2017-05-10T02:41:53.230Z,0
2017-05-10T02:42:53.246Z,0
2017-05-10T02:43:53.219Z,0
2017-05-10T02:44:52.992Z,0
2017-05-10T02:45:53.017Z,0
2017-05-10T02:46:52.738Z,0
2017-05-10T02:47:53.068Z,0
2017-05-10T02:48:53.668Z,0
2017-05-10T02:49:53.444Z,0
2017-05-10T02:50:53.153Z,0
2017-05-10T02:51:53.494Z,0
2017-05-10T02:52:53.215Z,0
2017-05-10T02:53:53.803Z,0
2017-05-10T02:54:53.268Z,0
2017-05-10T02:55:53.293Z,0
2017-05-10T02:56:53.314Z,0
2017-05-10T02:57:53.342Z,0
2017-05-10T02:58:53.631Z,0
2017-05-10T02:59:53.401Z,0
2017-05-10T03:00:53.419Z,0
2017-05-10T03:01:53.806Z,0
2017-05-10T03:02:53.482Z,0
2017-05-10T03:03:54.063Z,0
2017-05-10T03:04:53.851Z,0
2017-05-10T03:05:53.869Z,0
2017-05-10T03:06:53.269Z,0
2017-05-10T03:07:53.618Z,0
2017-05-10T03:08:53.575Z,0
2017-05-10T03:09:53.976Z,0
2017-05-10T03:10:54.001Z,0
2017-05-10T03:11:54.022Z,0
2017-05-10T03:12:53.749Z,0
2017-05-10T03:13:54.339Z,0
2017-05-10T03:14:54.104Z,0
2017-05-10T03:15:53.824Z,0
2017-05-10T03:16:53.853Z,0
2017-05-10T03:17:53.881Z,0
2017-05-10T03:18:54.469Z,0
2017-05-10T03:19:53.927Z,0
2017-05-10T03:20:54.266Z,0
2017-05-10T03:21:54.288Z,0
2017-05-10T03:22:53.998Z,0
2017-05-10T03:23:54.602Z,0
2017-05-10T03:24:54.376Z,0
2017-05-10T03:25:54.103Z,0
2017-05-10T03:26:53.797Z,0
2017-05-10T03:27:54.469Z,0
2017-05-10T03:28:53.546Z,0
2017-05-10T03:29:54.503Z,0
2017-05-10T03:30:54.218Z,0
2017-05-10T03:31:54.253Z,0
2017-05-10T03:32:54.276Z,0
2017-05-10T03:33:54.315Z,0
2017-05-10T03:34:54.358Z,4
2017-05-10T03:35:54.663Z,4
2017-05-10T03:36:54.065Z,4
2017-05-10T03:37:54.406Z,0
2017-05-10T03:38:54.450Z,4
2017-05-10T03:39:54.151Z,4
2017-05-10T03:40:54.482Z,8
2017-05-10T03:41:54.824Z,4
2017-05-10T03:42:54.845Z,8
2017-05-10T03:43:54.576Z,8
2017-05-10T03:44:54.915Z,12
2017-05-10T03:45:54.633Z,12
2017-05-10T03:46:54.959Z,12
2017-05-10T03:47:54.665Z,16
2017-05-10T03:48:54.393Z,16
2017-05-10T03:49:54.766Z,16
2017-05-10T03:50:55.063Z,20
2017-05-10T03:51:55.087Z,20
2017-05-10T03:52:54.800Z,28
2017-05-10T03:53:55.141Z,28
2017-05-10T03:54:55.166Z,28
2017-05-10T03:55:55.194Z,32
2017-05-10T03:56:54.903Z,36
2017-05-10T03:57:55.247Z,40
2017-05-10T03:58:54.957Z,40
2017-05-10T03:59:55.557Z,44
2017-05-10T04:00:55.014Z,52
2017-05-10T04:01:55.031Z,52
2017-05-10T04:02:55.064Z,56
2017-05-10T04:03:55.405Z,56
2017-05-10T04:04:55.676Z,64
2017-05-10T04:05:55.142Z,68
2017-05-10T04:06:55.487Z,72
2017-05-10T04:07:54.887Z,76
2017-05-10T04:08:55.226Z,84
2017-05-10T04:09:55.497Z,88
2017-05-10T04:10:55.594Z,92
2017-05-10T04:11:55.619Z,96
2017-05-10T04:12:55.690Z,104
2017-05-10T04:13:55.048Z,108
2017-05-10T04:14:55.013Z,116
2017-05-10T04:15:55.418Z,120
2017-05-10T04:16:55.126Z,128
2017-05-10T04:17:55.771Z,132
2017-05-10T04:18:55.492Z,136
2017-05-10T04:19:55.769Z,144
2017-05-10T04:20:55.233Z,152
2017-05-10T04:21:55.888Z,156
2017-05-10T04:22:55.903Z,164
2017-05-10T04:23:55.625Z,168
2017-05-10T04:24:56.205Z,180
2017-05-10T04:25:55.990Z,188
2017-05-10T04:26:56.010Z,192
2017-05-10T04:27:55.418Z,200
2017-05-10T04:28:55.435Z,204
2017-05-10T04:29:56.033Z,212
2017-05-10T04:30:55.809Z,220
2017-05-10T04:31:56.151Z,224
2017-05-10T04:32:55.547Z,228
2017-05-10T04:33:56.198Z,236
2017-05-10T04:34:56.473Z,240
2017-05-10T04:35:55.937Z,248
2017-05-10T04:36:56.281Z,248
2017-05-10T04:37:56.307Z,256
2017-05-10T04:38:56.328Z,260
2017-05-10T04:39:56.619Z,264
2017-05-10T04:40:56.383Z,268
2017-05-10T04:41:56.093Z,272
2017-05-10T04:42:56.446Z,280
2017-05-10T04:43:56.146Z,280
2017-05-10T04:44:56.436Z,288
2017-05-10T04:45:56.518Z,292
2017-05-10T04:46:56.542Z,296
2017-05-10T04:47:56.274Z,300
2017-05-10T04:48:56.598Z,304
2017-05-10T04:49:56.871Z,312
2017-05-10T04:50:56.651Z,312
2017-05-10T04:51:56.362Z,320
2017-05-10T04:52:56.706Z,324
2017-05-10T04:53:56.098Z,328
2017-05-10T04:54:57.009Z,328
2017-05-10T04:55:56.784Z,336
2017-05-10T04:56:56.184Z,340
2017-05-10T04:57:56.526Z,340
2017-05-10T04:58:56.550Z,348
2017-05-10T04:59:57.140Z,352
2017-05-10T05:00:56.644Z,352
2017-05-10T05:01:56.957Z,356
2017-05-10T05:02:56.965Z,360
2017-05-10T05:03:56.994Z,368
2017-05-10T05:04:57.271Z,368
2017-05-10T05:05:57.055Z,372
2017-05-10T05:06:56.779Z,376
2017-05-10T05:07:57.097Z,380
2017-05-10T05:08:56.827Z,380
2017-05-10T05:09:57.408Z,384
2017-05-10T05:10:57.167Z,384
2017-05-10T05:11:56.896Z,388
2017-05-10T05:12:56.618Z,392
2017-05-10T05:13:56.958Z,396
2017-05-10T05:14:57.530Z,400
2017-05-10T05:15:57.303Z,404
2017-05-10T05:16:57.016Z,408
2017-05-10T05:17:57.374Z,412
2017-05-10T05:18:57.078Z,412
2017-05-10T05:19:57.046Z,412
2017-05-10T05:20:57.131Z,420
2017-05-10T05:21:57.473Z,424
2017-05-10T05:22:57.180Z,424
2017-05-10T05:23:57.524Z,428
2017-05-10T05:24:57.487Z,432
2017-05-10T05:25:57.575Z,432
2017-05-10T05:26:57.599Z,440
2017-05-10T05:27:57.321Z,444
2017-05-10T05:28:57.342Z,448
2017-05-10T05:29:57.622Z,448
2017-05-10T05:30:57.711Z,452
2017-05-10T05:31:57.421Z,456
2017-05-10T05:32:57.770Z,460
2017-05-10T05:33:57.785Z,460
2017-05-10T05:34:57.506Z,464
2017-05-10T05:35:57.846Z,464
2017-05-10T05:36:57.556Z,468
2017-05-10T05:37:57.574Z,468
2017-05-10T05:38:57.309Z,472
2017-05-10T05:39:57.340Z,476
2017-05-10T05:40:57.667Z,476
2017-05-10T05:41:58.039Z,480
2017-05-10T05:42:58.023Z,468
2017-05-10T05:43:57.745Z,484
2017-05-10T05:44:57.765Z,484
2017-05-10T05:45:57.800Z,488
2017-05-10T05:46:58.147Z,488
2017-05-10T05:47:57.844Z,492
2017-05-10T05:48:57.889Z,496
2017-05-10T05:49:57.911Z,496
2017-05-10T05:50:58.251Z,500
2017-05-10T05:51:58.266Z,504
2017-05-10T05:52:58.292Z,504
2017-05-10T05:53:58.425Z,504
2017-05-10T05:54:58.039Z,508
2017-05-10T05:55:58.378Z,508
2017-05-10T05:56:58.091Z,512
2017-05-10T05:57:58.120Z,516
2017-05-10T05:58:58.472Z,516
2017-05-10T05:59:58.173Z,516
2017-05-10T06:00:58.442Z,520
2017-05-10T06:01:58.538Z,520
2017-05-10T06:02:58.264Z,524
2017-05-10T06:03:58.591Z,520
2017-05-10T06:04:58.622Z,524
2017-05-10T06:05:58.898Z,524
2017-05-10T06:06:58.359Z,524
2017-05-10T06:07:58.071Z,524
2017-05-10T06:08:58.414Z,528
2017-05-10T06:09:58.445Z,528
2017-05-10T06:10:59.035Z,532
2017-05-10T06:11:58.503Z,532
2017-05-10T06:12:58.839Z,532
2017-05-10T06:13:58.543Z,532
2017-05-10T06:14:58.899Z,532
2017-05-10T06:15:59.179Z,532
2017-05-10T06:16:58.948Z,532
2017-05-10T06:17:58.977Z,532
2017-05-10T06:18:58.684Z,532
2017-05-10T06:19:59.027Z,532
2017-05-10T06:20:59.305Z,536
2017-05-10T06:21:58.779Z,536
2017-05-10T06:22:59.108Z,536
2017-05-10T06:23:58.821Z,536
2017-05-10T06:24:58.847Z,540
2017-05-10T06:25:59.121Z,540
2017-05-10T06:26:58.903Z,540
2017-05-10T06:27:58.931Z,544
2017-05-10T06:28:59.264Z,544
2017-05-10T06:29:58.674Z,544
2017-05-10T06:30:59.266Z,548
2017-05-10T06:31:59.034Z,548
2017-05-10T06:32:59.382Z,548
2017-05-10T06:33:59.101Z,544
2017-05-10T06:34:59.137Z,548
2017-05-10T06:35:59.722Z,548
2017-05-10T06:36:59.494Z,548
2017-05-10T06:37:59.210Z,552
2017-05-10T06:38:59.240Z,552
2017-05-10T06:39:59.570Z,556
2017-05-10T06:40:59.848Z,556
2017-05-10T06:41:59.634Z,552
2017-05-10T06:42:59.335Z,552
2017-05-10T06:43:59.368Z,552
2017-05-10T06:44:59.405Z,552
2017-05-10T06:45:59.674Z,556
2017-05-10T06:46:59.757Z,552
2017-05-10T06:47:59.475Z,552
2017-05-10T06:48:59.820Z,560
2017-05-10T06:49:59.203Z,556
2017-05-10T06:51:00.149Z,556
2017-05-10T06:51:59.572Z,560
2017-05-10T06:52:59.605Z,560
2017-05-10T06:53:59.643Z,560
2017-05-10T06:54:59.648Z,560
2017-05-10T06:56:00.238Z,560
2017-05-10T06:56:59.717Z,560
2017-05-10T06:58:00.059Z,560
2017-05-10T06:59:00.071Z,564
2017-05-10T06:59:59.483Z,560
2017-05-10T07:01:00.393Z,560
2017-05-10T07:02:00.162Z,564
2017-05-10T07:03:00.191Z,564
2017-05-10T07:04:00.216Z,564
2017-05-10T07:04:59.930Z,564
2017-05-10T07:06:00.524Z,564
2017-05-10T07:07:00.302Z,564
2017-05-10T07:08:00.327Z,564
2017-05-10T07:09:00.043Z,568
2017-05-10T07:10:00.067Z,568
2017-05-10T07:11:00.661Z,568
2017-05-10T07:12:00.435Z,572
2017-05-10T07:13:00.147Z,568
2017-05-10T07:14:00.484Z,572
2017-05-10T07:15:00.208Z,572
2017-05-10T07:16:00.545Z,572
2017-05-10T07:17:00.262Z,572
2017-05-10T07:18:00.286Z,572
2017-05-10T07:19:00.623Z,576
2017-05-10T07:20:00.650Z,576
2017-05-10T07:21:00.679Z,576
2017-05-10T07:22:00.398Z,576
2017-05-10T07:23:00.746Z,576
2017-05-10T07:24:00.775Z,580
2017-05-10T07:25:00.787Z,580
2017-05-10T07:26:00.829Z,580
2017-05-10T07:27:00.533Z,580
2017-05-10T07:28:00.555Z,580
2017-05-10T07:29:00.895Z,584
2017-05-10T07:30:00.921Z,584
2017-05-10T07:31:00.324Z,584
2017-05-10T07:32:00.917Z,588
2017-05-10T07:33:00.729Z,592
2017-05-10T07:34:00.730Z,592
2017-05-10T07:35:00.747Z,592
2017-05-10T07:36:00.772Z,592
2017-05-10T07:37:01.371Z,596
2017-05-10T07:38:00.827Z,596
2017-05-10T07:39:00.858Z,596
2017-05-10T07:40:00.895Z,596
2017-05-10T07:41:00.912Z,600
2017-05-10T07:42:01.493Z,600
2017-05-10T07:43:00.970Z,604
2017-05-10T07:44:01.307Z,604
2017-05-10T07:45:00.716Z,608
2017-05-10T07:46:01.362Z,608
2017-05-10T07:47:01.328Z,608
2017-05-10T07:48:01.138Z,612
2017-05-10T07:49:01.124Z,616
2017-05-10T07:50:01.469Z,616
2017-05-10T07:51:00.865Z,620
2017-05-10T07:52:01.790Z,624
2017-05-10T07:53:01.554Z,628
2017-05-10T07:54:01.587Z,632
2017-05-10T07:55:01.292Z,632
2017-05-10T07:56:01.317Z,636
2017-05-10T07:57:01.909Z,640
2017-05-10T07:58:01.377Z,644
2017-05-10T07:59:01.719Z,652
2017-05-10T08:00:01.751Z,652
2017-05-10T08:01:01.461Z,652
2017-05-10T08:02:01.760Z,656
2017-05-10T08:03:01.518Z,660
2017-05-10T08:04:01.854Z,660
2017-05-10T08:05:01.888Z,664
2017-05-10T08:06:01.902Z,668
2017-05-10T08:07:01.877Z,672
2017-05-10T08:08:01.646Z,676
2017-05-10T08:09:02.011Z,684
2017-05-10T08:10:01.079Z,684
2017-05-10T08:11:02.040Z,688
2017-05-10T08:12:02.326Z,692
2017-05-10T08:13:02.092Z,696
2017-05-10T08:14:01.817Z,704
2017-05-10T08:15:01.523Z,720
2017-05-10T08:16:01.590Z,728
2017-05-10T08:17:02.457Z,720
2017-05-10T08:18:02.238Z,732
2017-05-10T08:19:01.942Z,736
2017-05-10T08:20:01.975Z,736
2017-05-10T08:21:02.313Z,740
2017-05-10T08:22:02.276Z,752
2017-05-10T08:23:02.050Z,756
2017-05-10T08:24:02.400Z,752
2017-05-10T08:25:02.424Z,752
2017-05-10T08:26:01.819Z,760
2017-05-10T08:27:02.425Z,764
2017-05-10T08:28:01.570Z,768
2017-05-10T08:29:01.901Z,772
2017-05-10T08:30:02.554Z,768
2017-05-10T08:31:02.588Z,768
2017-05-10T08:32:02.556Z,768
2017-05-10T08:33:02.048Z,772
2017-05-10T08:34:02.358Z,784
2017-05-10T08:35:02.707Z,788
2017-05-10T08:36:02.720Z,800
2017-05-10T08:37:03.003Z,796
2017-05-10T08:38:02.473Z,796
2017-05-10T08:39:02.494Z,800
2017-05-10T08:40:02.832Z,804
2017-05-10T08:41:02.852Z,808
2017-05-10T08:42:02.517Z,824
2017-05-10T08:43:02.918Z,824
2017-05-10T08:44:02.943Z,828
2017-05-10T08:45:02.656Z,836
2017-05-10T08:46:02.367Z,844
2017-05-10T08:47:02.956Z,852
2017-05-10T08:48:03.049Z,860
2017-05-10T08:49:02.462Z,860
2017-05-10T08:50:02.791Z,864
2017-05-10T08:51:03.132Z,868
2017-05-10T08:52:03.104Z,872
2017-05-10T08:53:03.196Z,880
2017-05-10T08:54:02.901Z,884
2017-05-10T08:55:03.250Z,884
2017-05-10T08:56:02.644Z,884
2017-05-10T08:57:02.916Z,888
2017-05-10T08:58:03.325Z,900
2017-05-10T08:59:03.044Z,900
2017-05-10T09:00:03.069Z,900
2017-05-10T09:01:03.440Z,900
2017-05-10T09:02:03.381Z,908
2017-05-10T09:03:03.473Z,904
2017-05-10T09:04:03.182Z,908
2017-05-10T09:05:03.515Z,908
2017-05-10T09:06:03.544Z,912
2017-05-10T09:07:03.820Z,916
2017-05-10T09:08:03.594Z,924
2017-05-10T09:09:03.322Z,924
2017-05-10T09:10:03.342Z,924
2017-05-10T09:11:03.668Z,932
2017-05-10T09:12:04.005Z,936
2017-05-10T09:13:03.743Z,940
2017-05-10T09:14:03.764Z,944
2017-05-10T09:15:03.790Z,944
2017-05-10T09:16:03.816Z,952
2017-05-10T09:17:03.783Z,960
2017-05-10T09:18:03.877Z,960
2017-05-10T09:20:03.922Z,964
2017-05-10T09:21:03.957Z,968
2017-05-10T09:22:03.920Z,972
2017-05-10T09:23:04.009Z,984
2017-05-10T09:24:03.729Z,984
2017-05-10T09:25:03.795Z,992
2017-05-10T09:26:03.782Z,996
2017-05-10T09:27:04.060Z,1004
2017-05-10T09:28:03.834Z,1008
2017-05-10T09:29:03.873Z,1012
2017-05-10T09:30:04.206Z,1016
2017-05-10T09:31:04.230Z,1016
2017-05-10T09:32:04.503Z,1016
2017-05-10T09:33:03.969Z,1020
2017-05-10T09:34:04.311Z,1028
2017-05-10T09:35:04.339Z,1036
2017-05-10T09:36:04.366Z,1044
2017-05-10T09:37:04.337Z,1056
2017-05-10T09:38:04.101Z,1068
2017-05-10T09:39:04.448Z,1084
2017-05-10T09:40:04.481Z,1088
2017-05-10T09:41:04.503Z,1088
2017-05-10T09:42:04.148Z,1084
2017-05-10T09:43:04.553Z,1084
2017-05-10T09:44:04.282Z,1100
2017-05-10T09:45:04.314Z,1120
2017-05-10T09:46:04.330Z,1136
2017-05-10T09:47:04.604Z,1132
2017-05-10T09:48:04.692Z,1128
2017-05-10T09:49:04.726Z,1136
2017-05-10T09:50:04.745Z,1148
2017-05-10T09:51:04.779Z,1152
2017-05-10T09:52:04.744Z,1156
2017-05-10T09:53:04.514Z,1156
2017-05-10T09:54:04.544Z,1156
2017-05-10T09:55:04.577Z,1156
2017-05-10T09:56:04.915Z,1164
2017-05-10T09:57:04.885Z,1176
2017-05-10T09:58:04.984Z,1176
2017-05-10T09:59:04.683Z,1176
2017-05-10T10:00:04.421Z,1180
2017-05-10T10:01:05.055Z,1184
2017-05-10T10:02:05.020Z,1184
2017-05-10T10:03:04.788Z,1184
2017-05-10T10:04:05.138Z,1184
2017-05-10T10:05:04.847Z,1184
2017-05-10T10:06:04.879Z,1184
2017-05-10T10:07:05.476Z,1208
2017-05-10T10:08:04.624Z,1224
2017-05-10T10:09:04.965Z,1236
2017-05-10T10:10:04.990Z,1248
2017-05-10T10:11:04.711Z,1260
2017-05-10T10:12:04.998Z,1280
2017-05-10T10:13:05.077Z,1304
2017-05-10T10:14:05.416Z,1316
2017-05-10T10:15:05.445Z,1316
2017-05-10T10:16:05.155Z,1316
2017-05-10T10:17:05.748Z,1316
2017-05-10T10:18:05.204Z,1316
2017-05-10T10:19:05.553Z,1332
2017-05-10T10:20:05.265Z,1336
2017-05-10T10:21:05.294Z,1356
2017-05-10T10:22:05.631Z,1380
2017-05-10T10:23:05.040Z,1400
2017-05-10T10:24:05.696Z,1408
2017-05-10T10:25:05.713Z,1420
2017-05-10T10:26:05.741Z,1444
2017-05-10T10:27:05.771Z,1480
2017-05-10T10:28:05.796Z,1508
2017-05-10T10:29:05.208Z,1544
2017-05-10T10:30:05.861Z,1564
2017-05-10T10:31:05.574Z,1592
2017-05-10T10:32:05.602Z,1616
2017-05-10T10:33:05.944Z,1644
2017-05-10T10:34:05.657Z,1664
2017-05-10T10:35:05.685Z,1684
2017-05-10T10:36:05.714Z,1688
2017-05-10T10:37:05.743Z,1684
2017-05-10T10:38:06.078Z,1688
2017-05-10T10:39:05.796Z,1700
2017-05-10T10:40:06.139Z,1708
2017-05-10T10:41:06.169Z,1708
2017-05-10T10:42:05.875Z,1700
2017-05-10T10:43:05.915Z,1704
2017-05-10T10:44:05.948Z,1708
2017-05-10T10:45:06.280Z,1712
2017-05-10T10:46:05.989Z,1716
2017-05-10T10:47:06.330Z,1720
2017-05-10T10:48:06.351Z,1720
2017-05-10T10:49:06.076Z,1716
2017-05-10T10:50:05.793Z,1712
2017-05-10T10:51:05.846Z,1700
2017-05-10T10:52:05.850Z,1708
2017-05-10T10:53:06.500Z,1708
2017-05-10T10:54:06.530Z,1716
2017-05-10T10:55:06.552Z,1728
2017-05-10T10:56:06.274Z,1688
2017-05-10T10:57:06.610Z,1700
2017-05-10T10:58:06.633Z,1712
2017-05-10T10:59:06.671Z,1716
2017-05-10T11:00:06.697Z,1732
2017-05-10T11:01:06.413Z,1752
2017-05-10T11:02:06.750Z,1760
2017-05-10T11:03:06.779Z,1752
2017-05-10T11:04:06.798Z,1764
2017-05-10T11:05:06.525Z,1812
2017-05-10T11:06:06.554Z,1868
2017-05-10T11:07:06.888Z,1924
2017-05-10T11:08:06.914Z,2064
2017-05-10T11:09:06.634Z,2228
2017-05-10T11:10:06.668Z,2332
2017-05-10T11:11:06.690Z,2408
2017-05-10T11:12:07.034Z,2564
2017-05-10T11:13:06.437Z,2764
2017-05-10T11:14:07.087Z,2892
2017-05-10T11:15:07.112Z,2972
2017-05-10T11:16:06.517Z,3064
2017-05-10T11:17:07.166Z,3152
2017-05-10T11:18:07.458Z,3232
2017-05-10T11:19:06.915Z,3300
2017-05-10T11:20:07.252Z,3352
2017-05-10T11:21:07.285Z,3408
2017-05-10T11:22:07.313Z,3468
2017-05-10T11:23:06.973Z,3520
2017-05-10T11:24:07.380Z,3552
2017-05-10T11:25:07.088Z,3596
2017-05-10T11:26:07.429Z,3672
2017-05-10T11:27:07.451Z,3720
2017-05-10T11:28:07.737Z,3792
2017-05-10T11:29:06.887Z,3872
2017-05-10T11:30:07.536Z,3980
2017-05-10T11:31:07.568Z,4052
2017-05-10T11:32:07.594Z,4112
2017-05-10T11:33:07.563Z,4176
2017-05-10T11:34:07.650Z,4280
2017-05-10T11:35:07.680Z,4404
2017-05-10T11:36:07.425Z,4572
2017-05-10T11:37:07.100Z,5300
2017-05-10T11:38:07.701Z,7872
2017-05-10T11:39:07.482Z,9832
2017-05-10T11:40:07.194Z,11160
2017-05-10T11:41:07.856Z,12372
2017-05-10T11:42:07.566Z,12488
2017-05-10T11:43:08.158Z,11548
2017-05-10T11:44:07.623Z,10796
2017-05-10T11:45:07.348Z,10132
2017-05-10T11:46:07.997Z,9796
2017-05-10T11:47:07.405Z,9624
2017-05-10T11:48:07.997Z,9708
2017-05-10T11:49:07.775Z,9936
2017-05-10T11:50:07.807Z,9720
2017-05-10T11:51:08.143Z,9296
2017-05-10T11:52:08.176Z,8900
2017-05-10T11:53:08.150Z,8780
2017-05-10T11:54:07.932Z,8972
2017-05-10T11:55:08.266Z,9180
2017-05-10T11:56:08.304Z,9264
2017-05-10T11:57:07.712Z,9352
2017-05-10T11:58:08.617Z,9368
2017-05-10T11:59:08.081Z,9436
2017-05-10T12:00:08.429Z,9452
2017-05-10T12:01:07.832Z,9488
2017-05-10T12:02:08.491Z,9480
2017-05-10T12:03:08.458Z,9244
2017-05-10T12:04:08.243Z,9032
2017-05-10T12:05:08.267Z,8968
2017-05-10T12:06:08.610Z,9136
2017-05-10T12:07:08.651Z,9188
2017-05-10T12:08:08.617Z,9188
2017-05-10T12:09:08.708Z,9372
2017-05-10T12:10:08.738Z,9736
2017-05-10T12:11:08.456Z,10184
2017-05-10T12:12:07.866Z,10724
2017-05-10T12:13:09.094Z,11208
2017-05-10T12:14:08.562Z,11360
2017-05-10T12:15:08.588Z,11188
2017-05-10T12:16:08.304Z,10980
2017-05-10T12:17:08.966Z,10620
2017-05-10T12:18:09.246Z,10384
2017-05-10T12:19:08.720Z,10344
2017-05-10T12:20:09.059Z,10572
2017-05-10T12:21:08.788Z,10700
2017-05-10T12:22:08.821Z,10512
2017-05-10T12:23:09.102Z,10360
2017-05-10T12:24:08.876Z,10684
2017-05-10T12:25:09.225Z,10960
2017-05-10T12:26:08.643Z,11240
2017-05-10T12:27:09.288Z,11328
2017-05-10T12:28:09.573Z,11560
2017-05-10T12:29:09.362Z,11912
2017-05-10T12:30:09.395Z,12336
2017-05-10T12:31:09.423Z,12780
2017-05-10T12:32:09.454Z,13184
2017-05-10T12:33:09.738Z,13700
2017-05-10T12:34:09.525Z,14100
2017-05-10T12:35:09.260Z,14408
2017-05-10T12:36:09.579Z,14808
2017-05-10T12:37:09.625Z,15428
2017-05-10T12:38:09.906Z,16132
2017-05-10T12:39:09.733Z,16424
2017-05-10T12:40:09.103Z,16728
2017-05-10T12:41:09.448Z,17408
2017-05-10T12:42:09.486Z,18240
2017-05-10T12:43:09.478Z,18624
2017-05-10T12:44:09.863Z,19072
2017-05-10T12:45:09.894Z,19584
2017-05-10T12:46:09.931Z,19616
2017-05-10T12:47:09.655Z,20192
2017-05-10T12:48:09.941Z,20960
2017-05-10T12:49:10.037Z,21984
2017-05-10T12:50:09.764Z,24000
2017-05-10T12:51:10.090Z,25504
2017-05-10T12:52:10.137Z,25920
2017-05-10T12:53:10.415Z,26080
2017-05-10T12:54:09.573Z,26144
2017-05-10T12:55:09.632Z,26976
2017-05-10T12:56:09.967Z,26848
2017-05-10T12:57:10.304Z,28928
2017-05-10T12:58:10.635Z,29728
2017-05-10T12:59:10.048Z,28256
2017-05-10T13:00:10.344Z,27712
2017-05-10T13:01:10.435Z,27648
2017-05-10T13:02:10.164Z,27968
2017-05-10T13:03:10.765Z,28128
2017-05-10T13:04:10.542Z,27712
2017-05-10T13:05:10.574Z,26560
2017-05-10T13:06:10.611Z,26112
2017-05-10T13:07:10.648Z,26720
2017-05-10T13:08:10.929Z,26752
2017-05-10T13:09:10.402Z,26112
2017-05-10T13:10:10.434Z,25888
2017-05-10T13:11:10.478Z,25824
2017-05-10T13:12:10.512Z,26528
2017-05-10T13:13:11.108Z,27424
2017-05-10T13:14:10.570Z,28832
2017-05-10T13:15:10.306Z,31040
2017-05-10T13:16:10.958Z,33056
2017-05-10T13:17:10.998Z,34656
2017-05-10T13:18:10.964Z,35872
2017-05-10T13:19:10.749Z,35776
2017-05-10T13:20:10.782Z,35424
2017-05-10T13:21:10.823Z,35008
2017-05-10T13:22:10.544Z,36864
2017-05-10T13:23:11.451Z,39168
2017-05-10T13:24:10.616Z,41248
2017-05-10T13:25:11.266Z,43488
2017-05-10T13:26:11.315Z,48000
2017-05-10T13:27:11.028Z,53632
2017-05-10T13:28:11.844Z,60896
2017-05-10T13:29:11.106Z,68864
2017-05-10T13:30:11.442Z,74752
2017-05-10T13:31:11.421Z,80064
2017-05-10T13:32:11.514Z,92256
2017-05-10T13:33:11.244Z,100480
2017-05-10T13:34:11.277Z,92672
2017-05-10T13:35:11.309Z,79360
2017-05-10T13:36:11.042Z,71360
2017-05-10T13:37:11.732Z,65920
2017-05-10T13:38:11.948Z,48800
2017-05-10T13:39:11.457Z,33312
2017-05-10T13:40:11.787Z,26752
2017-05-10T13:41:11.848Z,26048
2017-05-10T13:42:12.092Z,29152
2017-05-10T13:43:11.273Z,30304
2017-05-10T13:44:11.251Z,30912
2017-05-10T13:45:11.657Z,31136
2017-05-10T13:46:12.003Z,29728
2017-05-10T13:47:12.027Z,29856
2017-05-10T13:48:12.101Z,28224
2017-05-10T13:49:12.373Z,26464
2017-05-10T13:50:12.134Z,22464
2017-05-10T13:51:11.862Z,18560